sensor_id;sensor_type;location;lat;lon;timestamp;temperature;humidity
5631;DHT22;2837;50.990;7.124;2024-03-02T06:07:32;8.80;99.90
5631;DHT22;2837;50.990;7.124;2024-03-02T06:19:42;8.80;99.90
5631;DHT22;2837;50.990;7.124;2024-03-02T06:22:07;8.80;99.90
5631;DHT22;2837;50.990;7.124;2024-03-02T06:27:07;8.90;99.90
5631;DHT22;2837;50.990;7.124;2024-03-02T06:34:25;8.90;99.90
5631;DHT22;2837;50.990;7.124;2024-03-02T06:49:01;9.00;99.90
5631;DHT22;2837;50.990;7.124;2024-03-02T07:01:12;9.00;99.90
5631;DHT22;2837;50.990;7.124;2024-03-02T07:06:07;9.10;99.90
5631;DHT22;2837;50.990;7.124;2024-03-02T07:08:33;9.10;99.90
5631;DHT22;2837;50.990;7.124;2024-03-02T07:10:59;9.00;99.90
5631;DHT22;2837;50.990;7.124;2024-03-02T07:13:24;9.00;99.90
5631;DHT22;2837;50.990;7.124;2024-03-02T07:20:54;9.10;99.90
5631;DHT22;2837;50.990;7.124;2024-03-02T07:28:16;9.20;99.90
5631;DHT22;2837;50.990;7.124;2024-03-02T07:33:07;9.20;99.90
5631;DHT22;2837;50.990;7.124;2024-03-02T07:50:09;9.40;99.90
5631;DHT22;2837;50.990;7.124;2024-03-02T07:59:53;9.50;99.90
5631;DHT22;2837;50.990;7.124;2024-03-02T08:46:10;10.20;99.90
5631;DHT22;2837;50.990;7.124;2024-03-02T08:51:01;10.30;99.90
5631;DHT22;2837;50.990;7.124;2024-03-02T09:03:14;10.40;99.90
5631;DHT22;2837;50.990;7.124;2024-03-02T09:08:06;10.50;99.90
5631;DHT22;2837;50.990;7.124;2024-03-02T09:10:33;10.50;99.90
5631;DHT22;2837;50.990;7.124;2024-03-02T09:15:25;10.60;99.90
5631;DHT22;2837;50.990;7.124;2024-03-02T09:17:50;10.60;99.90
5631;DHT22;2837;50.990;7.124;2024-03-02T09:20:16;10.60;99.90
5631;DHT22;2837;50.990;7.124;2024-03-02T09:22:42;10.70;99.90
5631;DHT22;2837;50.990;7.124;2024-03-02T09:27:36;10.70;99.90
5631;DHT22;2837;50.990;7.124;2024-03-02T09:30:04;10.80;99.90
5631;DHT22;2837;50.990;7.124;2024-03-02T09:32:31;10.80;99.90
5631;DHT22;2837;50.990;7.124;2024-03-02T09:34:56;10.80;99.90
5631;DHT22;2837;50.990;7.124;2024-03-02T09:39:49;10.80;99.90
5631;DHT22;2837;50.990;7.124;2024-03-02T09:42:15;10.90;99.90
5631;DHT22;2837;50.990;7.124;2024-03-02T09:49:34;10.90;99.90
5631;DHT22;2837;50.990;7.124;2024-03-02T09:54:26;11.00;99.90
5631;DHT22;2837;50.990;7.124;2024-03-02T09:56:52;11.00;99.90
5631;DHT22;2837;50.990;7.124;2024-03-02T09:59:17;11.10;99.90
5631;DHT22;2837;50.990;7.124;2024-03-02T10:02:04;11.10;99.90
5631;DHT22;2837;50.990;7.124;2024-03-02T10:04:33;11.10;99.90
5631;DHT22;2837;50.990;7.124;2024-03-02T10:09:36;11.10;99.90
5631;DHT22;2837;50.990;7.124;2024-03-02T10:14:30;11.20;99.90
5631;DHT22;2837;50.990;7.124;2024-03-02T10:17:05;11.30;99.90
5631;DHT22;2837;50.990;7.124;2024-03-02T10:19:31;11.30;99.90
5631;DHT22;2837;50.990;7.124;2024-03-02T10:22:05;11.30;99.90
5631;DHT22;2837;50.990;7.124;2024-03-02T10:27:16;11.30;99.90
5631;DHT22;2837;50.990;7.124;2024-03-02T10:32:09;11.30;99.90
5631;DHT22;2837;50.990;7.124;2024-03-02T10:37:03;11.50;99.90
5631;DHT22;2837;50.990;7.124;2024-03-02T10:39:28;11.50;99.90
5631;DHT22;2837;50.990;7.124;2024-03-02T10:41:56;11.50;99.90
5631;DHT22;2837;50.990;7.124;2024-03-02T10:44:22;11.60;99.90
5631;DHT22;2837;50.990;7.124;2024-03-02T10:46:49;11.60;99.90
5631;DHT22;2837;50.990;7.124;2024-03-02T10:49:16;11.60;99.90
5631;DHT22;2837;50.990;7.124;2024-03-02T10:51:43;11.60;99.90
5631;DHT22;2837;50.990;7.124;2024-03-02T11:01:55;11.90;99.90
5631;DHT22;2837;50.990;7.124;2024-03-02T11:09:22;11.80;99.90
5631;DHT22;2837;50.990;7.124;2024-03-02T11:12:09;11.90;99.90
5631;DHT22;2837;50.990;7.124;2024-03-02T11:14:41;11.90;99.90
5631;DHT22;2837;50.990;7.124;2024-03-02T11:17:11;11.90;99.90
5631;DHT22;2837;50.990;7.124;2024-03-02T11:19:38;12.00;99.90
5631;DHT22;2837;50.990;7.124;2024-03-02T11:24:31;12.10;99.90
5631;DHT22;2837;50.990;7.124;2024-03-02T11:27:01;12.10;99.90
5631;DHT22;2837;50.990;7.124;2024-03-02T11:34:35;12.30;99.90
5631;DHT22;2837;50.990;7.124;2024-03-02T11:37:01;12.40;99.90
5631;DHT22;2837;50.990;7.124;2024-03-02T11:39:28;12.30;99.90
5631;DHT22;2837;50.990;7.124;2024-03-02T11:41:55;12.30;99.90
5631;DHT22;2837;50.990;7.124;2024-03-02T11:44:21;12.30;99.90
5631;DHT22;2837;50.990;7.124;2024-03-02T11:52:08;12.40;99.90
5631;DHT22;2837;50.990;7.124;2024-03-02T11:57:04;12.40;99.90
5631;DHT22;2837;50.990;7.124;2024-03-02T11:59:30;12.40;99.90
5631;DHT22;2837;50.990;7.124;2024-03-02T12:06:55;12.40;99.90
5631;DHT22;2837;50.990;7.124;2024-03-02T12:14:13;12.50;99.90
5631;DHT22;2837;50.990;7.124;2024-03-02T12:26:23;12.70;99.90
5631;DHT22;2837;50.990;7.124;2024-03-02T12:31:15;12.80;99.90
5631;DHT22;2837;50.990;7.124;2024-03-02T12:36:10;12.90;99.90
5631;DHT22;2837;50.990;7.124;2024-03-02T12:38:37;12.90;99.90
5631;DHT22;2837;50.990;7.124;2024-03-02T12:41:03;12.90;99.90
5631;DHT22;2837;50.990;7.124;2024-03-02T12:45:58;13.10;99.90
5631;DHT22;2837;50.990;7.124;2024-03-02T12:48:23;13.10;99.90
5631;DHT22;2837;50.990;7.124;2024-03-02T12:53:16;13.30;99.90
5631;DHT22;2837;50.990;7.124;2024-03-02T12:55:42;13.40;99.90
5631;DHT22;2837;50.990;7.124;2024-03-02T12:58:17;13.40;99.90
5631;DHT22;2837;50.990;7.124;2024-03-02T13:00:42;13.30;99.90
5631;DHT22;2837;50.990;7.124;2024-03-02T13:03:08;13.30;99.90
5631;DHT22;2837;50.990;7.124;2024-03-02T13:05:34;13.40;99.90
5631;DHT22;2837;50.990;7.124;2024-03-02T13:08:00;13.40;99.90
5631;DHT22;2837;50.990;7.124;2024-03-02T13:12:56;13.50;99.90
5631;DHT22;2837;50.990;7.124;2024-03-02T13:17:48;13.40;99.90
5631;DHT22;2837;50.990;7.124;2024-03-02T13:20:14;13.40;99.90
5631;DHT22;2837;50.990;7.124;2024-03-02T13:22:40;13.40;99.90
5631;DHT22;2837;50.990;7.124;2024-03-02T13:25:06;13.40;99.90
5631;DHT22;2837;50.990;7.124;2024-03-02T13:27:33;13.50;99.90
5631;DHT22;2837;50.990;7.124;2024-03-02T13:29:59;13.50;99.90
5631;DHT22;2837;50.990;7.124;2024-03-02T13:32:24;13.70;99.90
5631;DHT22;2837;50.990;7.124;2024-03-02T13:34:51;13.70;99.90
5631;DHT22;2837;50.990;7.124;2024-03-02T13:37:17;13.60;99.90
5631;DHT22;2837;50.990;7.124;2024-03-02T13:39:43;13.60;99.90
5631;DHT22;2837;50.990;7.124;2024-03-02T13:42:12;13.60;99.90
5631;DHT22;2837;50.990;7.124;2024-03-02T13:47:06;13.50;99.90
5631;DHT22;2837;50.990;7.124;2024-03-02T13:52:06;13.50;99.90
5631;DHT22;2837;50.990;7.124;2024-03-02T13:54:45;13.50;99.90
5631;DHT22;2837;50.990;7.124;2024-03-02T13:57:12;13.40;99.90
5631;DHT22;2837;50.990;7.124;2024-03-02T13:59:38;13.40;99.90
5631;DHT22;2837;50.990;7.124;2024-03-02T14:02:07;13.40;99.90
5631;DHT22;2837;50.990;7.124;2024-03-02T14:04:34;13.40;99.90
5631;DHT22;2837;50.990;7.124;2024-03-02T14:07:00;13.50;99.90
5631;DHT22;2837;50.990;7.124;2024-03-02T14:09:26;13.50;99.90
5631;DHT22;2837;50.990;7.124;2024-03-02T14:11:52;13.50;99.90
5631;DHT22;2837;50.990;7.124;2024-03-02T14:14:18;13.50;99.90
5631;DHT22;2837;50.990;7.124;2024-03-02T14:16:44;13.50;99.90
5631;DHT22;2837;50.990;7.124;2024-03-02T14:19:10;13.50;99.90
5631;DHT22;2837;50.990;7.124;2024-03-02T14:21:37;13.50;99.90
5631;DHT22;2837;50.990;7.124;2024-03-02T14:24:03;13.50;99.90
5631;DHT22;2837;50.990;7.124;2024-03-02T14:26:29;13.60;99.90
5631;DHT22;2837;50.990;7.124;2024-03-02T14:28:54;13.60;99.90
5631;DHT22;2837;50.990;7.124;2024-03-02T14:33:47;13.70;99.90
5631;DHT22;2837;50.990;7.124;2024-03-02T14:38:39;13.60;99.90
5631;DHT22;2837;50.990;7.124;2024-03-02T14:45:57;13.50;99.90
5631;DHT22;2837;50.990;7.124;2024-03-02T14:48:24;13.50;99.90
5631;DHT22;2837;50.990;7.124;2024-03-02T14:50:50;13.50;99.90
5631;DHT22;2837;50.990;7.124;2024-03-02T14:55:43;13.40;99.90
5631;DHT22;2837;50.990;7.124;2024-03-02T14:58:08;13.40;99.90
5631;DHT22;2837;50.990;7.124;2024-03-02T15:00:35;13.40;99.90
5631;DHT22;2837;50.990;7.124;2024-03-02T15:05:27;13.40;99.90
5631;DHT22;2837;50.990;7.124;2024-03-02T15:10:18;13.50;99.90
5631;DHT22;2837;50.990;7.124;2024-03-02T15:12:44;13.60;99.90
5631;DHT22;2837;50.990;7.124;2024-03-02T15:15:10;13.60;99.90
5631;DHT22;2837;50.990;7.124;2024-03-02T15:17:36;13.60;99.90
5631;DHT22;2837;50.990;7.124;2024-03-02T15:20:02;13.50;99.90
5631;DHT22;2837;50.990;7.124;2024-03-02T15:22:29;13.50;99.90
5631;DHT22;2837;50.990;7.124;2024-03-02T15:27:21;13.60;99.90
5631;DHT22;2837;50.990;7.124;2024-03-02T15:29:47;13.60;99.90
5631;DHT22;2837;50.990;7.124;2024-03-02T15:32:15;13.60;99.90
5631;DHT22;2837;50.990;7.124;2024-03-02T15:34:41;13.60;99.90
5631;DHT22;2837;50.990;7.124;2024-03-02T15:37:08;13.50;99.90
5631;DHT22;2837;50.990;7.124;2024-03-02T15:39:34;13.50;99.90
5631;DHT22;2837;50.990;7.124;2024-03-02T15:41:59;13.50;99.90
5631;DHT22;2837;50.990;7.124;2024-03-02T15:44:25;13.50;99.90
5631;DHT22;2837;50.990;7.124;2024-03-02T15:46:50;13.50;99.90
5631;DHT22;2837;50.990;7.124;2024-03-02T15:51:42;13.40;99.90
5631;DHT22;2837;50.990;7.124;2024-03-02T15:54:10;13.50;99.90
5631;DHT22;2837;50.990;7.124;2024-03-02T15:56:35;13.40;99.90
5631;DHT22;2837;50.990;7.124;2024-03-02T16:01:29;13.40;99.90
5631;DHT22;2837;50.990;7.124;2024-03-02T16:03:54;13.40;99.90
5631;DHT22;2837;50.990;7.124;2024-03-02T16:06:20;13.40;99.90
5631;DHT22;2837;50.990;7.124;2024-03-02T16:08:45;13.40;99.90
5631;DHT22;2837;50.990;7.124;2024-03-02T16:11:11;13.40;99.90
5631;DHT22;2837;50.990;7.124;2024-03-02T16:13:37;13.40;99.90
5631;DHT22;2837;50.990;7.124;2024-03-02T16:16:03;13.40;99.90
5631;DHT22;2837;50.990;7.124;2024-03-02T16:18:29;13.40;99.90
5631;DHT22;2837;50.990;7.124;2024-03-02T16:23:20;13.40;99.90
5631;DHT22;2837;50.990;7.124;2024-03-02T16:25:46;13.40;99.90
5631;DHT22;2837;50.990;7.124;2024-03-02T16:28:11;13.40;99.90
5631;DHT22;2837;50.990;7.124;2024-03-02T16:30:37;13.30;99.90
5631;DHT22;2837;50.990;7.124;2024-03-02T16:33:03;13.20;99.90
5631;DHT22;2837;50.990;7.124;2024-03-02T16:35:29;13.30;99.90
5631;DHT22;2837;50.990;7.124;2024-03-02T16:37:54;13.30;99.90
5631;DHT22;2837;50.990;7.124;2024-03-02T16:40:20;13.30;99.90
5631;DHT22;2837;50.990;7.124;2024-03-02T16:45:11;13.20;99.90
5631;DHT22;2837;50.990;7.124;2024-03-02T16:50:03;13.10;99.90
5631;DHT22;2837;50.990;7.124;2024-03-02T16:54:58;13.00;99.90
5631;DHT22;2837;50.990;7.124;2024-03-02T16:57:23;13.00;99.90
5631;DHT22;2837;50.990;7.124;2024-03-02T16:59:49;12.90;99.90
5631;DHT22;2837;50.990;7.124;2024-03-02T17:02:14;12.90;99.90
5631;DHT22;2837;50.990;7.124;2024-03-02T17:04:40;12.90;99.90
5631;DHT22;2837;50.990;7.124;2024-03-02T17:07:06;12.90;99.90
5631;DHT22;2837;50.990;7.124;2024-03-02T17:09:32;12.80;99.90
5631;DHT22;2837;50.990;7.124;2024-03-02T17:11:57;12.80;99.90
5631;DHT22;2837;50.990;7.124;2024-03-02T17:16:50;12.70;99.90
5631;DHT22;2837;50.990;7.124;2024-03-02T17:19:16;12.80;99.90
5631;DHT22;2837;50.990;7.124;2024-03-02T17:21:41;12.80;99.90
5631;DHT22;2837;50.990;7.124;2024-03-02T17:24:07;12.80;99.90
5631;DHT22;2837;50.990;7.124;2024-03-02T17:26:33;12.80;99.90
5631;DHT22;2837;50.990;7.124;2024-03-02T17:28:58;12.70;99.90
5631;DHT22;2837;50.990;7.124;2024-03-02T17:31:24;12.80;99.90
5631;DHT22;2837;50.990;7.124;2024-03-02T17:33:49;12.80;99.90
5631;DHT22;2837;50.990;7.124;2024-03-02T17:36:15;12.80;99.90
5631;DHT22;2837;50.990;7.124;2024-03-02T17:41:07;12.70;99.90
5631;DHT22;2837;50.990;7.124;2024-03-02T17:43:34;12.70;99.90
5631;DHT22;2837;50.990;7.124;2024-03-02T17:45:59;12.70;99.90
5631;DHT22;2837;50.990;7.124;2024-03-02T17:50:51;12.80;99.90
5631;DHT22;2837;50.990;7.124;2024-03-02T17:53:17;12.90;99.90
5631;DHT22;2837;50.990;7.124;2024-03-02T17:58:09;12.90;99.90
5631;DHT22;2837;50.990;7.124;2024-03-02T18:00:35;12.80;99.90
5631;DHT22;2837;50.990;7.124;2024-03-02T18:03:00;12.80;99.90
5631;DHT22;2837;50.990;7.124;2024-03-02T18:05:26;12.80;99.90
5631;DHT22;2837;50.990;7.124;2024-03-02T18:10:18;12.80;99.90
5631;DHT22;2837;50.990;7.124;2024-03-02T18:15:10;12.70;99.90
5631;DHT22;2837;50.990;7.124;2024-03-02T18:17:35;12.80;99.90
5631;DHT22;2837;50.990;7.124;2024-03-02T18:20:02;12.80;99.90
5631;DHT22;2837;50.990;7.124;2024-03-02T18:22:30;12.80;99.90
5631;DHT22;2837;50.990;7.124;2024-03-02T18:24:55;12.80;99.90
5631;DHT22;2837;50.990;7.124;2024-03-02T18:27:21;12.70;99.90
5631;DHT22;2837;50.990;7.124;2024-03-02T18:32:13;12.70;99.90
5631;DHT22;2837;50.990;7.124;2024-03-02T18:34:38;12.70;99.90
5631;DHT22;2837;50.990;7.124;2024-03-02T18:37:04;12.60;99.90
5631;DHT22;2837;50.990;7.124;2024-03-02T18:39:30;12.70;99.90
5631;DHT22;2837;50.990;7.124;2024-03-02T18:44:21;12.60;99.90
5631;DHT22;2837;50.990;7.124;2024-03-02T18:49:13;12.70;99.90
5631;DHT22;2837;50.990;7.124;2024-03-02T18:51:38;12.60;99.90
5631;DHT22;2837;50.990;7.124;2024-03-02T18:54:07;12.60;99.90
5631;DHT22;2837;50.990;7.124;2024-03-02T18:56:32;12.70;99.90
5631;DHT22;2837;50.990;7.124;2024-03-02T18:58:58;12.60;99.90
5631;DHT22;2837;50.990;7.124;2024-03-02T19:01:23;12.70;99.90
5631;DHT22;2837;50.990;7.124;2024-03-02T19:06:15;12.60;99.90
5631;DHT22;2837;50.990;7.124;2024-03-02T19:08:41;12.60;99.90
5631;DHT22;2837;50.990;7.124;2024-03-02T19:11:14;12.60;99.90
5631;DHT22;2837;50.990;7.124;2024-03-02T19:13:40;12.60;99.90
5631;DHT22;2837;50.990;7.124;2024-03-02T19:16:15;12.50;99.90
5631;DHT22;2837;50.990;7.124;2024-03-02T19:18:41;12.50;99.90
5631;DHT22;2837;50.990;7.124;2024-03-02T19:23:33;12.50;99.90
5631;DHT22;2837;50.990;7.124;2024-03-02T19:25:59;12.60;99.90
5631;DHT22;2837;50.990;7.124;2024-03-02T19:28:24;12.50;99.90
5631;DHT22;2837;50.990;7.124;2024-03-02T19:30:50;12.50;99.90
5631;DHT22;2837;50.990;7.124;2024-03-02T19:38:09;12.40;99.90
5631;DHT22;2837;50.990;7.124;2024-03-02T19:40:35;12.40;99.90
5631;DHT22;2837;50.990;7.124;2024-03-02T19:43:00;12.40;99.90
5631;DHT22;2837;50.990;7.124;2024-03-02T19:45:26;12.30;99.90
5631;DHT22;2837;50.990;7.124;2024-03-02T19:47:52;12.30;99.90
5631;DHT22;2837;50.990;7.124;2024-03-02T19:50:18;12.30;99.90
5631;DHT22;2837;50.990;7.124;2024-03-02T19:52:44;12.30;99.90
5631;DHT22;2837;50.990;7.124;2024-03-02T19:55:10;12.30;99.90
5631;DHT22;2837;50.990;7.124;2024-03-02T19:57:38;12.30;99.90
5631;DHT22;2837;50.990;7.124;2024-03-02T20:02:35;12.30;99.90
5631;DHT22;2837;50.990;7.124;2024-03-02T20:05:01;12.30;99.90
5631;DHT22;2837;50.990;7.124;2024-03-02T20:07:27;12.40;99.90
5631;DHT22;2837;50.990;7.124;2024-03-02T20:12:19;12.40;99.90
5631;DHT22;2837;50.990;7.124;2024-03-02T20:14:45;12.30;99.90
5631;DHT22;2837;50.990;7.124;2024-03-02T20:19:40;12.30;99.90
5631;DHT22;2837;50.990;7.124;2024-03-02T20:22:06;12.30;99.90
5631;DHT22;2837;50.990;7.124;2024-03-02T20:26:57;12.30;99.90
5631;DHT22;2837;50.990;7.124;2024-03-02T20:29:23;12.30;99.90
5631;DHT22;2837;50.990;7.124;2024-03-02T20:31:48;12.30;99.90
5631;DHT22;2837;50.990;7.124;2024-03-02T20:34:14;12.40;99.90
5631;DHT22;2837;50.990;7.124;2024-03-02T20:36:42;12.50;99.90
5631;DHT22;2837;50.990;7.124;2024-03-02T20:39:08;12.30;99.90
5631;DHT22;2837;50.990;7.124;2024-03-02T20:46:28;12.30;99.90
5631;DHT22;2837;50.990;7.124;2024-03-02T20:48:54;12.30;99.90
5631;DHT22;2837;50.990;7.124;2024-03-02T20:51:19;12.30;99.90
5631;DHT22;2837;50.990;7.124;2024-03-02T20:53:45;12.30;99.90
5631;DHT22;2837;50.990;7.124;2024-03-02T20:58:37;12.30;99.90
5631;DHT22;2837;50.990;7.124;2024-03-02T21:01:02;12.30;99.90
5631;DHT22;2837;50.990;7.124;2024-03-02T21:03:30;12.20;99.90
5631;DHT22;2837;50.990;7.124;2024-03-02T21:08:21;12.20;99.90
5631;DHT22;2837;50.990;7.124;2024-03-02T21:10:47;12.20;99.90
5631;DHT22;2837;50.990;7.124;2024-03-02T21:13:13;12.20;99.90
5631;DHT22;2837;50.990;7.124;2024-03-02T21:15:41;12.20;99.90
5631;DHT22;2837;50.990;7.124;2024-03-02T21:18:06;12.10;99.90
5631;DHT22;2837;50.990;7.124;2024-03-02T21:20:32;12.00;99.90
5631;DHT22;2837;50.990;7.124;2024-03-02T21:27:52;12.00;99.90
5631;DHT22;2837;50.990;7.124;2024-03-02T21:30:17;12.00;99.90
5631;DHT22;2837;50.990;7.124;2024-03-02T21:35:09;11.90;99.90
5631;DHT22;2837;50.990;7.124;2024-03-02T21:37:35;11.90;99.90
5631;DHT22;2837;50.990;7.124;2024-03-02T21:40:00;12.00;99.90
5631;DHT22;2837;50.990;7.124;2024-03-02T21:47:18;11.90;99.90
5631;DHT22;2837;50.990;7.124;2024-03-02T21:49:44;11.90;99.90
5631;DHT22;2837;50.990;7.124;2024-03-02T21:52:10;12.00;99.90
5631;DHT22;2837;50.990;7.124;2024-03-02T21:54:36;12.10;99.90
5631;DHT22;2837;50.990;7.124;2024-03-02T21:57:01;12.10;99.90
